Etusivu
METAR-TAF:

METAR-TAF

Lentoasemat :

Stavanger, Norja

Stavangerin lentoasema

Leveyspiiri: 58-53N, Pituuspiiri: 005-38E, korkeus merenpinnasta: 0 m

Tämänhetkinen sää

Tämä raportti tehtiin 31 minuuttia sitten, kello 07.20 UTC
Tuuli 6 kn idästä/kaakosta
Lämpötila -2°C
Kosteus 80%
Ilmanpaine 1038 hPa
Näkyvyys 10 km tai enemmän
Muutamia pilviä 2500 ft:n korkeudessa
Hajanaisia pilviä 3500 ft:n korkeudessa
Hajonneita pilviä 11000 ft:n korkeudessa

METAR: ENZV 250720Z 12006KT 9999 FEW025 SCT035 BKN110 M02/M05 Q1038 NOSIG

Aika: 08:51 (07:51 UTC)

Sääennuste

Ennuste voimassa 25. päivästä klo 06 UTC - 26. päivään klo 06 UTC
Tuuli 7 kn kaakosta
Näkyvyys 10 km tai enemmän
Muutamia pilviä 3000 ft:n korkeudessa
Hajanaisia pilviä 6000 ft:n korkeudessa

TAF: ENZV 2506/2606 13007KT 9999 FEW030 SCT060

Säähavainnot ja -ennusteet yli 4000 lentoasemalta (METAR- ja TAF-raportit).

Käytössä olevat sääasemat on merkitty karttaan keltaisilla ja punaisilla pisteillä.

Aseta hiiri pisteen päälle nähdäksesi sääaseman nimen.

Klikkaa sitten nähdäksesi säähavainnot ja -ennusteet.

Kartan vaihtaminen: klikkaa mustalla rastilla varustettuja vihreitä pisteitä, niin voit zoomata sisään; viivalla varustettua vihreää pistettä, niin voit zoomata ulos tai vihreitä nuolia, niin pääset viereisille kartoille.


METAR-TAF: